TAF KGUC
KGUC 280520Z 2806/2906 VRB04KT P6SM FEW250=
METAR KGUC
WC KGUC
WS KGUC
WV KGUC